Observation data for Wolfforth on 05/16/2018      Previous  Date  Next       Current Mesonet Observations  Soil Data  Daily Summary Page  Observations in Plain Language
KWOS 160500Z 10010KT 19/13 A3003 RMK A01 T01850129  RH  073%=      5-min Rain = 0
KWOS 160505Z 10011KT 18/13 A3003 RMK A01 T01840129  RH  073%=      5-min Rain = 0
KWOS 160510Z 11009KT 18/13 A3003 RMK A01 T01820128  RH  074%=      5-min Rain = 0
KWOS 160515Z 11007KT 18/13 A3003 RMK A01 T01780129  RH  076%=      5-min Rain = 0
KWOS 160520Z 10006KT 18/13 A3003 RMK A01 T01750128  RH  077%=      5-min Rain = 0
KWOS 160525Z 09008KT 18/13 A3003 RMK A01 T01750128  RH  077%=      5-min Rain = 0
KWOS 160530Z 08009KT 18/13 A3003 RMK A01 T01750128  RH  076%=      5-min Rain = 0
KWOS 160535Z 08010KT 18/13 A3003 RMK A01 T01760126  RH  076%=      5-min Rain = 0
KWOS 160540Z 08010KT 18/13 A3002 RMK A01 T01760125  RH  075%=      5-min Rain = 0
KWOS 160545Z 08011KT 18/13 A3002 RMK A01 T01770126  RH  075%=      5-min Rain = 0
KWOS 160550Z 09011KT 18/13 A3002 RMK A01 T01760126  RH  076%=      5-min Rain = 0
KWOS 160555Z 09012G17KT 18/13 A3002 RMK A01 T01760127  RH  076%=      5-min Rain = 0
KWOS 160600Z 09011KT 18/13 A3002 RMK A01 T01750127  RH  076%=      5-min Rain = 0
KWOS 160605Z 09012KT 18/13 A3003 RMK A01 T01750127  RH  077%=      5-min Rain = 0
KWOS 160610Z 10011KT 17/13 A3003 RMK A01 T01740128  RH  077%=      5-min Rain = 0
KWOS 160615Z 10011KT 17/13 A3003 RMK A01 T01730129  RH  078%=      5-min Rain = 0
KWOS 160620Z 10011KT 17/13 A3003 RMK A01 T01720129  RH  079%=      5-min Rain = 0
KWOS 160625Z 10012KT 17/13 A3003 RMK A01 T01720130  RH  079%=      5-min Rain = 0
KWOS 160630Z 11012KT 17/13 A3003 RMK A01 T01720130  RH  080%=      5-min Rain = 0
KWOS 160635Z 11014G19KT 17/13 A3003 RMK A01 T01720131  RH  080%=      5-min Rain = 0
KWOS 160640Z 11013KT 17/13 A3003 RMK A01 T01720132  RH  080%=      5-min Rain = 0
KWOS 160645Z 11011KT 17/13 A3003 RMK A01 T01710132  RH  081%=      5-min Rain = 0
KWOS 160650Z 11012KT 17/13 A3003 RMK A01 T01700133  RH  082%=      5-min Rain = 0
KWOS 160655Z 11012KT 17/13 A3002 RMK A01 T01700133  RH  082%=      5-min Rain = 0
KWOS 160700Z 11011G16KT 17/13 A3002 RMK A01 T01700134  RH  082%=      5-min Rain = 0
KWOS 160705Z 11011KT 17/13 A3002 RMK A01 T01690134  RH  083%=      5-min Rain = 0
KWOS 160710Z 11010KT 17/14 A3001 RMK A01 T01680135  RH  084%=      5-min Rain = 0
KWOS 160715Z 12010KT 17/14 A3001 RMK A01 T01670135  RH  085%=      5-min Rain = 0
KWOS 160720Z 13010KT 17/14 A30 RMK A01 T01680135  RH  084%=      5-min Rain = 0
KWOS 160725Z 13009KT 17/14 A30 RMK A01 T01690135  RH  084%=      5-min Rain = 0
KWOS 160730Z 12008KT 17/14 A3001 RMK A01 T01680135  RH  084%=      5-min Rain = 0
KWOS 160735Z 13007KT 17/13 A30 RMK A01 T01660134  RH  085%=      5-min Rain = 0
KWOS 160740Z 13008KT 17/14 A30 RMK A01 T01660135  RH  085%=      5-min Rain = 0
KWOS 160745Z 13008KT 17/14 A30 RMK A01 T01650135  RH  085%=      5-min Rain = 0
KWOS 160750Z 13009KT 17/14 A30 RMK A01 T01650135  RH  086%=      5-min Rain = 0
KWOS 160755Z 13009KT 17/14 A2999 RMK A01 T01650135  RH  086%=      5-min Rain = 0
KWOS 160800Z 13009KT 17/14 A2999 RMK A01 T01650135  RH  086%=      5-min Rain = 0
KWOS 160805Z 14009KT 17/14 A2999 RMK A01 T01650135  RH  086%=      5-min Rain = 0
KWOS 160810Z 13010KT 17/13 A2999 RMK A01 T01650134  RH  086%=      5-min Rain = 0
KWOS 160815Z 12009KT 17/14 A2999 RMK A01 T01650135  RH  086%=      5-min Rain = 0
KWOS 160820Z 12009KT 16/14 A2998 RMK A01 T01640135  RH  087%=      5-min Rain = 0
KWOS 160825Z 13009KT 16/14 A2998 RMK A01 T01640135  RH  087%=      5-min Rain = 0
KWOS 160830Z 14010KT 16/14 A2998 RMK A01 T01640135  RH  086%=      5-min Rain = 0
KWOS 160835Z 14011KT 17/14 A2998 RMK A01 T01650135  RH  086%=      5-min Rain = 0
KWOS 160840Z 14009KT 17/14 A2998 RMK A01 T01650135  RH  086%=      5-min Rain = 0
KWOS 160845Z 14010KT 17/14 A2998 RMK A01 T01650135  RH  086%=      5-min Rain = 0
KWOS 160850Z 15009KT 17/13 A2998 RMK A01 T01650134  RH  085%=      5-min Rain = 0
KWOS 160855Z 15010KT 17/14 A2998 RMK A01 T01660135  RH  085%=      5-min Rain = 0
KWOS 160900Z 15010KT 17/14 A2998 RMK A01 T01680136  RH  084%=      5-min Rain = 0
KWOS 160905Z 15009KT 17/14 A2998 RMK A01 T01700136  RH  084%=      5-min Rain = 0
KWOS 160910Z 15009KT 17/14 A2998 RMK A01 T01710137  RH  083%=      5-min Rain = 0
KWOS 160915Z 14009KT 17/14 A2999 RMK A01 T01720137  RH  083%=      5-min Rain = 0
KWOS 160920Z 12006KT 17/14 A30 RMK A01 T01710137  RH  083%=      5-min Rain = 0
KWOS 160925Z 04008KT 17/14 A3001 RMK A01 T01690136  RH  084%=      5-min Rain = 0
KWOS 160930Z 03012KT 16/14 A3002 RMK A01 T01630138  RH  089%=      5-min Rain = 0
KWOS 160935Z 05010KT 17/14 A3002 RMK A01 T01650140  RH  089%=      5-min Rain = 0
KWOS 160940Z 10008KT 17/14 A3001 RMK A01 T01660141  RH  089%=      5-min Rain = 0
KWOS 160945Z 09007KT 17/14 A3001 RMK A01 T01660140  RH  089%=      5-min Rain = 0
KWOS 160950Z 06009KT 17/14 A3001 RMK A01 T01650140  RH  089%=      5-min Rain = 0
KWOS 160955Z 06009KT 17/14 A3002 RMK A01 T01660141  RH  089%=      5-min Rain = 0
KWOS 161000Z 08008KT 17/14 A3002 RMK A01 T01680142  RH  089%=      5-min Rain = 0
KWOS 161005Z 11008KT 17/14 A3001 RMK A01 T01680142  RH  088%=      5-min Rain = 0
KWOS 161010Z 10009KT 17/14 A3001 RMK A01 T01650140  RH  089%=      5-min Rain = 0
KWOS 161015Z 08008KT 17/14 A3002 RMK A01 T01650141  RH  090%=      5-min Rain = 0
KWOS 161020Z 08007KT 17/14 A3002 RMK A01 T01660142  RH  090%=      5-min Rain = 0
KWOS 161025Z 10006KT 17/14 A3002 RMK A01 T01670142  RH  089%=      5-min Rain = 0
KWOS 161030Z 10007KT 17/14 A3002 RMK A01 T01650141  RH  089%=      5-min Rain = 0
KWOS 161035Z 10007KT 16/14 A3002 RMK A01 T01620140  RH  090%=      5-min Rain = 0
KWOS 161040Z 08008KT 16/14 A3002 RMK A01 T01600139  RH  091%=      5-min Rain = 0
KWOS 161045Z 09007KT 16/14 A3002 RMK A01 T01580138  RH  092%=      5-min Rain = 0
KWOS 161050Z 12006KT 16/14 A3002 RMK A01 T01570138  RH  092%=      5-min Rain = 0
KWOS 161055Z 14008KT 16/14 A3001 RMK A01 T01570138  RH  092%=      5-min Rain = 0
KWOS 161100Z 13008KT 16/14 A3001 RMK A01 T01570137  RH  091%=      5-min Rain = 0
KWOS 161105Z 11008KT 16/14 A3002 RMK A01 T01570137  RH  091%=      5-min Rain = 0
KWOS 161110Z 10007KT 16/14 A3002 RMK A01 T01550136  RH  092%=      5-min Rain = 0
KWOS 161115Z 11006KT 15/14 A3002 RMK A01 T01540136  RH  093%=      5-min Rain = 0
KWOS 161120Z 13006KT 15/14 A3001 RMK A01 T01530136  RH  093%=      5-min Rain = 0
KWOS 161125Z 14006KT 15/14 A3001 RMK A01 T01520135  RH  093%=      5-min Rain = 0
KWOS 161130Z 15006KT 15/14 A3001 RMK A01 T01510135  RH  093%=      5-min Rain = 0
KWOS 161135Z 14007KT 15/13 A3001 RMK A01 T01520134  RH  093%=      5-min Rain = 0
KWOS 161140Z 13007KT 15/13 A3001 RMK A01 T01530133  RH  092%=      5-min Rain = 0
KWOS 161145Z 12006KT 15/13 A3001 RMK A01 T01520133  RH  092%=      5-min Rain = 0
KWOS 161150Z 11004KT 15/13 A3001 RMK A01 T01510132  RH  092%=      5-min Rain = 0
KWOS 161155Z 10003KT 15/13 A3002 RMK A01 T01490132  RH  093%=      5-min Rain = 0
KWOS 161200Z 12004KT 15/13 A3001 RMK A01 T01480131  RH  093%=      5-min Rain = 0
KWOS 161205Z 10004KT 15/13 A3002 RMK A01 T01470130  RH  093%=      5-min Rain = 0
KWOS 161210Z 06004KT 15/13 A3002 RMK A01 T01450129  RH  094%=      5-min Rain = 0
KWOS 161215Z 04005KT 15/13 A3003 RMK A01 T01450130  RH  094%=      5-min Rain = 0
KWOS 161220Z 05004KT 15/13 A3004 RMK A01 T01480132  RH  094%=      5-min Rain = 0
KWOS 161225Z 06003KT 15/13 A3004 RMK A01 T01520134  RH  093%=      5-min Rain = 0
KWOS 161230Z 04003KT 16/14 A3005 RMK A01 T01550135  RH  092%=      5-min Rain = 0
KWOS 161235Z 06004KT 16/14 A3005 RMK A01 T01570136  RH  091%=      5-min Rain = 0
KWOS 161240Z 07006KT 16/14 A3006 RMK A01 T01610139  RH  091%=      5-min Rain = 0
KWOS 161245Z 06008KT 16/14 A3007 RMK A01 T01620139  RH  090%=      5-min Rain = 0
KWOS 161250Z 06008KT 16/14 A3007 RMK A01 T01620139  RH  090%=      5-min Rain = 0
KWOS 161255Z 06008KT 16/14 A3008 RMK A01 T01620140  RH  091%=      5-min Rain = 0
KWOS 161300Z 06010KT 17/14 A3009 RMK A01 T01650141  RH  090%=      5-min Rain = 0
KWOS 161305Z 07011KT 17/14 A3009 RMK A01 T01650140  RH  089%=      5-min Rain = 0
KWOS 161310Z 07011KT 17/14 A3009 RMK A01 T01660140  RH  088%=      5-min Rain = 0
KWOS 161315Z 07011KT 17/14 A3009 RMK A01 T01650139  RH  088%=      5-min Rain = 0
KWOS 161320Z 08010KT 17/14 A301 RMK A01 T01670141  RH  088%=      5-min Rain = 0
KWOS 161325Z 07011KT 17/14 A301 RMK A01 T01700141  RH  087%=      5-min Rain = 0
KWOS 161330Z 07012KT 17/14 A301 RMK A01 T01720142  RH  086%=      5-min Rain = 0
KWOS 161335Z 07011KT 17/14 A3011 RMK A01 T01730141  RH  085%=      5-min Rain = 0
KWOS 161340Z 08011KT 17/14 A3011 RMK A01 T01730139  RH  083%=      5-min Rain = 0
KWOS 161345Z 08009KT 18/14 A2905 RMK A01 T01750139  RH  083%=      5-min Rain = 0
KWOS 161350Z 08010KT 18/14 A3011 RMK A01 T01760140  RH  082%=      5-min Rain = 0
KWOS 161355Z 07010KT 18/14 A3011 RMK A01 T01770140  RH  082%=      5-min Rain = 0
KWOS 161400Z 08009KT 18/14 A3011 RMK A01 T01780139  RH  081%=      5-min Rain = 0
KWOS 161405Z 07010KT 18/14 A3011 RMK A01 T01780139  RH  081%=      5-min Rain = 0
KWOS 161410Z 07008KT 18/14 A3011 RMK A01 T01780139  RH  081%=      5-min Rain = 0
KWOS 161415Z 09007KT 18/14 A3011 RMK A01 T01800138  RH  080%=      5-min Rain = 0
KWOS 161420Z 09007KT 18/14 A3011 RMK A01 T01830138  RH  078%=      5-min Rain = 0
KWOS 161425Z 11005G10KT 19/14 A3011 RMK A01 T01870140  RH  077%=      5-min Rain = 0
KWOS 161430Z 12008KT 20/14 A3011 RMK A01 T01950139  RH  073%=      5-min Rain = 0
KWOS 161435Z 12009KT 20/14 A3011 RMK A01 T01960138  RH  072%=      5-min Rain = 0
KWOS 161440Z 13010KT 20/14 A3011 RMK A01 T02010136  RH  069%=      5-min Rain = 0
KWOS 161445Z 13010KT 20/14 A3011 RMK A01 T02030136  RH  068%=      5-min Rain = 0
KWOS 161450Z 13010KT 21/14 A3011 RMK A01 T02060136  RH  067%=      5-min Rain = 0
KWOS 161455Z 14010G15KT 21/14 A3011 RMK A01 T02090136  RH  066%=      5-min Rain = 0
KWOS 161500Z 14010KT 21/14 A3011 RMK A01 T02120136  RH  064%=      5-min Rain = 0
KWOS 161505Z 14011KT 22/14 A3012 RMK A01 T02150137  RH  063%=      5-min Rain = 0
KWOS 161510Z 15011G16KT 22/14 A3012 RMK A01 T02170136  RH  062%=      5-min Rain = 0
KWOS 161515Z 16011G19KT 22/13 A3012 RMK A01 T02180134  RH  061%=      5-min Rain = 0
KWOS 161520Z 17010KT 22/13 A3011 RMK A01 T02210133  RH  060%=      5-min Rain = 0
KWOS 161525Z 16009G15KT 22/13 A3011 RMK A01 T02210133  RH  060%=      5-min Rain = 0
KWOS 161530Z 15011G16KT 22/13 A3011 RMK A01 T02240130  RH  058%=      5-min Rain = 0
KWOS 161535Z 15009G15KT 23/13 A3011 RMK A01 T02290132  RH  057%=      5-min Rain = 0
KWOS 161540Z 16011KT 23/13 A3011 RMK A01 T02310126  RH  054%=      5-min Rain = 0
KWOS 161545Z 16012G18KT 23/12 A3011 RMK A01 T02300121  RH  052%=      5-min Rain = 0
KWOS 161550Z 17012G18KT 24/12 A301 RMK A01 T02360118  RH  049%=      5-min Rain = 0
KWOS 161555Z 17012G19KT 23/12 A301 RMK A01 T02340118  RH  050%=      5-min Rain = 0
KWOS 161600Z 17012G20KT 24/12 A301 RMK A01 T02430115  RH  046%=      5-min Rain = 0
KWOS 161605Z 16015G21KT 24/11 A301 RMK A01 T02430108  RH  044%=      5-min Rain = 0
KWOS 161610Z 17015G20KT 25/11 A301 RMK A01 T02470111  RH  044%=      5-min Rain = 0
KWOS 161615Z 16016G21KT 25/11 A3009 RMK A01 T02480107  RH  042%=      5-min Rain = 0
KWOS 161620Z 16016KT 25/11 A3009 RMK A01 T02480106  RH  042%=      5-min Rain = 0
KWOS 161625Z 17016G22KT 25/11 A3009 RMK A01 T02510107  RH  042%=      5-min Rain = 0
KWOS 161630Z 17017KT 25/11 A3009 RMK A01 T02520105  RH  041%=      5-min Rain = 0
KWOS 161635Z 17015G20KT 26/11 A3008 RMK A01 T02580107  RH  040%=      5-min Rain = 0
KWOS 161640Z 17015G22KT 26/11 A3008 RMK A01 T02590106  RH  040%=      5-min Rain = 0
KWOS 161645Z 17017G25KT 26/11 A3008 RMK A01 T02610105  RH  039%=      5-min Rain = 0
KWOS 161650Z 17018G25KT 26/10 A3008 RMK A01 T02600100  RH  038%=      5-min Rain = 0
KWOS 161655Z 17019G25KT 26/10 A3007 RMK A01 T02640098  RH  037%=      5-min Rain = 0
KWOS 161700Z 17019G26KT 27/10 A3007 RMK A01 T02650099  RH  036%=      5-min Rain = 0
KWOS 161705Z 17017G26KT 27/10 A3007 RMK A01 T02700099  RH  035%=      5-min Rain = 0
KWOS 161710Z 16017G26KT 27/10 A3007 RMK A01 T02710100  RH  035%=      5-min Rain = 0
KWOS 161715Z 16017G29KT 27/10 A3007 RMK A01 T02740101  RH  035%=      5-min Rain = 0
KWOS 161720Z 17018G24KT 28/10 A3007 RMK A01 T02760103  RH  035%=      5-min Rain = 0
KWOS 161725Z 17018G24KT 28/10 A3007 RMK A01 T02770104  RH  035%=      5-min Rain = 0
KWOS 161730Z 16017G25KT 28/11 A3007 RMK A01 T02820105  RH  034%=      5-min Rain = 0
KWOS 161735Z 16018G28KT 28/11 A3007 RMK A01 T02800106  RH  035%=      5-min Rain = 0
KWOS 161740Z 15017G25KT 28/11 A3006 RMK A01 T02780107  RH  035%=      5-min Rain = 0
KWOS 161745Z 15014G21KT 28/11 A3006 RMK A01 T02840108  RH  034%=      5-min Rain = 0
KWOS 161750Z 17015G20KT 29/11 A3006 RMK A01 T02870107  RH  034%=      5-min Rain = 0
KWOS 161755Z 16016G22KT 29/11 A3005 RMK A01 T02850107  RH  034%=      5-min Rain = 0
KWOS 161800Z 15016G23KT 29/11 A3005 RMK A01 T02880109  RH  034%=      5-min Rain = 0
KWOS 161805Z 16017G23KT 29/11 A3005 RMK A01 T02880110  RH  034%=      5-min Rain = 0
KWOS 161810Z 15015G25KT 29/11 A3005 RMK A01 T02900109  RH  034%=      5-min Rain = 0
KWOS 161815Z 13016G22KT 29/11 A3004 RMK A01 T02910108  RH  033%=      5-min Rain = 0
KWOS 161820Z 15014G22KT 29/11 A3004 RMK A01 T02880108  RH  034%=      5-min Rain = 0
KWOS 161825Z 14017G25KT 29/11 A3004 RMK A01 T02910107  RH  033%=      5-min Rain = 0
KWOS 161830Z 15012G19KT 29/11 A3004 RMK A01 T02910107  RH  033%=      5-min Rain = 0
KWOS 161835Z 14015G25KT 29/11 A3004 RMK A01 T02930105  RH  032%=      5-min Rain = 0
KWOS 161840Z 14015G22KT 29/10 A3004 RMK A01 T02930101  RH  031%=      5-min Rain = 0
KWOS 161845Z 15014G20KT 30/10 A3003 RMK A01 T02950101  RH  031%=      5-min Rain = 0
KWOS 161850Z 15013G20KT 30/10 A3003 RMK A01 T03020097  RH  029%=      5-min Rain = 0
KWOS 161855Z 14014G21KT 31/10 A3003 RMK A01 T03060095  RH  028%=      5-min Rain = 0
KWOS 161900Z 14013G21KT 31/09 A3003 RMK A01 T03070094  RH  027%=      5-min Rain = 0
KWOS 161905Z 14016G23KT 31/09 A3002 RMK A01 T03070093  RH  027%=      5-min Rain = 0
KWOS 161910Z 13016G22KT 31/09 A3002 RMK A01 T03050093  RH  028%=      5-min Rain = 0
KWOS 161915Z 17016G22KT 31/09 A3002 RMK A01 T03070091  RH  027%=      5-min Rain = 0
KWOS 161920Z 13016G22KT 31/09 A3002 RMK A01 T03070093  RH  027%=      5-min Rain = 0
KWOS 161925Z 14015G23KT 31/09 A3002 RMK A01 T03050092  RH  027%=      5-min Rain = 0
KWOS 161930Z 14016G26KT 31/09 A3002 RMK A01 T03100091  RH  026%=      5-min Rain = 0
KWOS 161935Z 14012G24KT 31/09 A3002 RMK A01 T03060091  RH  027%=      5-min Rain = 0
KWOS 161940Z 14014G20KT 31/09 A3002 RMK A01 T03070091  RH  027%=      5-min Rain = 0
KWOS 161945Z 13017G24KT 31/09 A3002 RMK A01 T03130091  RH  026%=      5-min Rain = 0
KWOS 161950Z 13011G16KT 31/09 A3001 RMK A01 T03100089  RH  026%=      5-min Rain = 0
KWOS 161955Z 15015G21KT 31/09 A3001 RMK A01 T03120089  RH  026%=      5-min Rain = 0
KWOS 162000Z 14012G19KT 31/09 A3001 RMK A01 T03140089  RH  026%=      5-min Rain = 0
KWOS 162005Z 15015G20KT 32/09 A3001 RMK A01 T03160088  RH  025%=      5-min Rain = 0
KWOS 162010Z 14012G18KT 32/09 A3001 RMK A01 T03160090  RH  025%=      5-min Rain = 0
KWOS 162015Z 15012G20KT 32/09 A30 RMK A01 T03210090  RH  025%=      5-min Rain = 0
KWOS 162020Z 14012G17KT 32/09 A30 RMK A01 T03190092  RH  025%=      5-min Rain = 0
KWOS 162025Z 13017G22KT 32/09 A2999 RMK A01 T03230093  RH  025%=      5-min Rain = 0
KWOS 162030Z 15009G14KT 32/09 A2999 RMK A01 T03220094  RH  025%=      5-min Rain = 0
KWOS 162035Z 15011KT 32/10 A2999 RMK A01 T03200095  RH  026%=      5-min Rain = 0
KWOS 162040Z 16011G18KT 32/09 A2999 RMK A01 T03200094  RH  026%=      5-min Rain = 0
KWOS 162045Z 18012G18KT 33/09 A2999 RMK A01 T03260090  RH  024%=      5-min Rain = 0
KWOS 162050Z 17012G19KT 32/09 A2999 RMK A01 T03210086  RH  024%=      5-min Rain = 0
KWOS 162055Z 17009G14KT 32/09 A2999 RMK A01 T03200088  RH  024%=      5-min Rain = 0
KWOS 162100Z 17009G18KT 32/10 A2998 RMK A01 T03230096  RH  025%=      5-min Rain = 0
KWOS 162105Z 17012G18KT 33/10 A2998 RMK A01 T03330098  RH  025%=      5-min Rain = 0
KWOS 162110Z 20012G18KT 33/09 A2998 RMK A01 T03270091  RH  024%=      5-min Rain = 0
KWOS 162115Z 17010G17KT 32/09 A2998 RMK A01 T03240094  RH  025%=      5-min Rain = 0
KWOS 162120Z 16009G15KT 33/09 A2998 RMK A01 T03250092  RH  024%=      5-min Rain = 0
KWOS 162125Z 13008G13KT 32/09 A2997 RMK A01 T03220090  RH  025%=      5-min Rain = 0
KWOS 162130Z 15006KT 33/09 A2997 RMK A01 T03250092  RH  024%=      5-min Rain = 0
KWOS 162135Z 18012G17KT 33/09 A2997 RMK A01 T03280088  RH  023%=      5-min Rain = 0
KWOS 162140Z 19010G16KT 33/08 A2997 RMK A01 T03270084  RH  023%=      5-min Rain = 0
KWOS 162145Z 20009G16KT 33/08 A2996 RMK A01 T03260079  RH  022%=      5-min Rain = 0
KWOS 162150Z 18007G16KT 32/09 A2996 RMK A01 T03230085  RH  024%=      5-min Rain = 0
KWOS 162155Z 14007G14KT 32/09 A2996 RMK A01 T03230087  RH  024%=      5-min Rain = 0
KWOS 162200Z 18010G15KT 33/08 A2996 RMK A01 T03270084  RH  023%=      5-min Rain = 0
KWOS 162205Z 21008G13KT 32/08 A2996 RMK A01 T03230078  RH  022%=      5-min Rain = 0
KWOS 162210Z 18013G18KT 33/08 A2995 RMK A01 T03300077  RH  021%=      5-min Rain = 0
KWOS 162215Z 16009G15KT 33/08 A2995 RMK A01 T03280075  RH  021%=      5-min Rain = 0
KWOS 162220Z 15007KT 33/07 A2995 RMK A01 T03260073  RH  021%=      5-min Rain = 0
KWOS 162225Z 14006G11KT 33/07 A2995 RMK A01 T03270074  RH  021%=      5-min Rain = 0
KWOS 162230Z 14007KT 33/08 A2995 RMK A01 T03290075  RH  021%=      5-min Rain = 0
KWOS 162235Z 12003G8KT 33/08 A2995 RMK A01 T03250076  RH  022%=      5-min Rain = 0
KWOS 162240Z 19007G13KT 33/08 A2994 RMK A01 T03290078  RH  022%=      5-min Rain = 0
KWOS 162245Z 20009G16KT 33/08 A2994 RMK A01 T03310076  RH  021%=      5-min Rain = 0
KWOS 162250Z 16009KT 33/08 A2994 RMK A01 T03310076  RH  021%=      5-min Rain = 0
KWOS 162255Z 15004KT 33/07 A2994 RMK A01 T03310074  RH  021%=      5-min Rain = 0
KWOS 162300Z 16007KT 33/07 A2993 RMK A01 T03310073  RH  021%=      5-min Rain = 0
KWOS 162305Z 20008G13KT 33/07 A2993 RMK A01 T03340066  RH  019%=      5-min Rain = 0
KWOS 162310Z 17008KT 34/06 A2993 RMK A01 T03360060  RH  018%=      5-min Rain = 0
KWOS 162315Z 16008G15KT 33/07 A2993 RMK A01 T03340065  RH  019%=      5-min Rain = 0
KWOS 162320Z 19006G12KT 33/05 A2993 RMK A01 T03330050  RH  017%=      5-min Rain = 0
KWOS 162325Z 17006G11KT 33/06 A2993 RMK A01 T03320057  RH  019%=      5-min Rain = 0
KWOS 162330Z 17007KT 33/05 A2993 RMK A01 T03340048  RH  017%=      5-min Rain = 0
KWOS 162335Z 18008KT 34/05 A2993 RMK A01 T03350051  RH  017%=      5-min Rain = 0
KWOS 162340Z 17007G13KT 34/05 A2993 RMK A01 T03360051  RH  017%=      5-min Rain = 0
KWOS 162345Z 22005KT 33/05 A2992 RMK A01 T03330051  RH  017%=      5-min Rain = 0
KWOS 162350Z 19008KT 33/05 A2992 RMK A01 T03340050  RH  017%=      5-min Rain = 0
KWOS 162355Z 18004KT 33/05 A2992 RMK A01 T03300049  RH  018%=      5-min Rain = 0
KWOS 170000Z 16002KT 33/05 A2992 RMK A01 T03300049  RH  018%=      5-min Rain = 0
KWOS 170005Z 18001KT 33/05 A2992 RMK A01 T03330050  RH  017%=      5-min Rain = 0
KWOS 170010Z 10007G14KT 33/08 A2992 RMK A01 T03330076  RH  021%=      5-min Rain = 0
KWOS 170015Z 13010G16KT 32/09 A2991 RMK A01 T03230092  RH  025%=      5-min Rain = 0
KWOS 170020Z 13008KT 32/09 A2991 RMK A01 T03170092  RH  026%=      5-min Rain = 0
KWOS 170025Z 14010KT 32/09 A2991 RMK A01 T03170090  RH  025%=      5-min Rain = 0
KWOS 170030Z 12010KT 32/10 A2991 RMK A01 T03200095  RH  026%=      5-min Rain = 0
KWOS 170035Z 12013G21KT 32/10 A2992 RMK A01 T03150101  RH  028%=      5-min Rain = 0
KWOS 170040Z 12018KT 31/11 A2992 RMK A01 T03090109  RH  030%=      5-min Rain = 0
KWOS 170045Z 11015KT 31/11 A2992 RMK A01 T03070109  RH  030%=      5-min Rain = 0
KWOS 170050Z 12015G20KT 30/11 A2992 RMK A01 T03030109  RH  031%=      5-min Rain = 0
KWOS 170055Z 12015KT 30/11 A2992 RMK A01 T03000110  RH  032%=      5-min Rain = 0
KWOS 170100Z 12014G20KT 30/11 A2992 RMK A01 T02980110  RH  032%=      5-min Rain = 0
KWOS 170105Z 12015KT 30/11 A2992 RMK A01 T02950109  RH  033%=      5-min Rain = 0
KWOS 170110Z 11013G18KT 30/11 A2992 RMK A01 T02950110  RH  033%=      5-min Rain = 0
KWOS 170115Z 11015KT 29/11 A2992 RMK A01 T02940109  RH  033%=      5-min Rain = 0
KWOS 170120Z 11014KT 29/11 A2992 RMK A01 T02930109  RH  033%=      5-min Rain = 0
KWOS 170125Z 11013KT 29/11 A2992 RMK A01 T02910108  RH  033%=      5-min Rain = 0
KWOS 170130Z 11013KT 29/11 A2992 RMK A01 T02890108  RH  034%=      5-min Rain = 0
KWOS 170135Z 11012KT 29/11 A2993 RMK A01 T02870108  RH  034%=      5-min Rain = 0
KWOS 170140Z 11011KT 29/11 A2993 RMK A01 T02850108  RH  034%=      5-min Rain = 0
KWOS 170145Z 10014G22KT 28/11 A2993 RMK A01 T02820109  RH  035%=      5-min Rain = 0
KWOS 170150Z 10017G23KT 28/11 A2993 RMK A01 T02780112  RH  037%=      5-min Rain = 0
KWOS 170155Z 10017G25KT 28/11 A2993 RMK A01 T02750113  RH  038%=      5-min Rain = 0
KWOS 170200Z 10016G24KT 27/11 A2994 RMK A01 T02720114  RH  039%=      5-min Rain = 0
KWOS 170205Z 10017G24KT 27/12 A2994 RMK A01 T02690115  RH  040%=      5-min Rain = 0
KWOS 170210Z 11016G21KT 27/12 A2994 RMK A01 T02670115  RH  040%=      5-min Rain = 0
KWOS 170215Z 11016G21KT 27/12 A2994 RMK A01 T02650116  RH  041%=      5-min Rain = 0
KWOS 170220Z 11016G23KT 26/12 A2995 RMK A01 T02630116  RH  041%=      5-min Rain = 0
KWOS 170225Z 11016G22KT 26/12 A2995 RMK A01 T02620116  RH  041%=      5-min Rain = 0
KWOS 170230Z 10016G21KT 26/12 A2995 RMK A01 T02610116  RH  042%=      5-min Rain = 0
KWOS 170235Z 10015G20KT 26/12 A2995 RMK A01 T02580115  RH  042%=      5-min Rain = 0
KWOS 170240Z 10014G19KT 26/12 A2996 RMK A01 T02570115  RH  043%=      5-min Rain = 0
KWOS 170245Z 11015G20KT 26/12 A2996 RMK A01 T02550115  RH  043%=      5-min Rain = 0
KWOS 170250Z 11015KT 26/12 A2996 RMK A01 T02550116  RH  043%=      5-min Rain = 0
KWOS 170255Z 11016G21KT 25/12 A2996 RMK A01 T02540116  RH  044%=      5-min Rain = 0
KWOS 170300Z 11013G18KT 25/12 A2997 RMK A01 T02520116  RH  044%=      5-min Rain = 0
KWOS 170305Z 11015G20KT 25/12 A2997 RMK A01 T02510116  RH  045%=      5-min Rain = 0
KWOS 170310Z 11014KT 25/12 A2997 RMK A01 T02500116  RH  045%=      5-min Rain = 0
KWOS 170315Z 11013G18KT 25/12 A2997 RMK A01 T02480116  RH  045%=      5-min Rain = 0
KWOS 170320Z 11014G19KT 25/12 A2998 RMK A01 T02480116  RH  045%=      5-min Rain = 0
KWOS 170325Z 12014KT 25/12 A2998 RMK A01 T02470117  RH  046%=      5-min Rain = 0
KWOS 170330Z 12013KT 25/12 A2998 RMK A01 T02450117  RH  046%=      5-min Rain = 0
KWOS 170335Z 12014KT 24/12 A2998 RMK A01 T02440117  RH  046%=      5-min Rain = 0
KWOS 170340Z 11012G17KT 24/12 A2998 RMK A01 T02430116  RH  047%=      5-min Rain = 0
KWOS 170345Z 11013KT 24/12 A2999 RMK A01 T02420117  RH  047%=      5-min Rain = 0
KWOS 170350Z 12013KT 24/12 A2999 RMK A01 T02410116  RH  047%=      5-min Rain = 0
KWOS 170355Z 12013KT 24/12 A2999 RMK A01 T02410116  RH  047%=      5-min Rain = 0
KWOS 170400Z 12012G18KT 24/12 A2999 RMK A01 T02400117  RH  048%=      5-min Rain = 0
KWOS 170405Z 12012KT 24/12 A2999 RMK A01 T02390117  RH  048%=      5-min Rain = 0
KWOS 170410Z 12012G17KT 24/12 A2999 RMK A01 T02380117  RH  048%=      5-min Rain = 0
KWOS 170415Z 12012G17KT 24/12 A2999 RMK A01 T02370117  RH  049%=      5-min Rain = 0
KWOS 170420Z 12012G17KT 24/12 A2999 RMK A01 T02360116  RH  049%=      5-min Rain = 0
KWOS 170425Z 12013KT 24/12 A2999 RMK A01 T02360116  RH  049%=      5-min Rain = 0
KWOS 170430Z 12012KT 24/12 A2999 RMK A01 T02350115  RH  049%=      5-min Rain = 0
KWOS 170435Z 12013KT 23/12 A2999 RMK A01 T02340115  RH  049%=      5-min Rain = 0
KWOS 170440Z 12012G17KT 23/12 A2999 RMK A01 T02330115  RH  049%=      5-min Rain = 0
KWOS 170445Z 12012KT 23/11 A2999 RMK A01 T02320114  RH  049%=      5-min Rain = 0
KWOS 170450Z 12012KT 23/11 A2999 RMK A01 T02320114  RH  049%=      5-min Rain = 0
KWOS 170455Z 13012KT 23/11 A2999 RMK A01 T02320114  RH  049%=      5-min Rain = 0

Page generated in 0.0308 seconds.